Time;durP1;ratioP1;P1;durP2;ratioP2;P2;SDS_P1;SDS_P2;PMS_P1;PMS_P2;Temp;Humidity;BMP_temperature;BMP_pressure;BME280_temperature;BME280_humidity;BME280_pressure;Samples;Min_cycle;Max_cycle;Signal;HPM_P1;HPM_P2
2021/07/18 00:02:01;;;;;;;5.90;5.30;;;21.00;70.40;;;;;;5033643;28;20566;-44
2021/07/18 00:04:28;;;;;;;5.80;4.30;;;21.00;70.40;;;;;;5032991;28;20482;-44
2021/07/18 00:06:55;;;;;;;4.80;3.60;;;21.00;70.10;;;;;;5035630;28;20859;-44
2021/07/18 00:09:22;;;;;;;5.80;5.20;;;21.00;69.80;;;;;;5038127;28;20553;-44
2021/07/18 00:11:49;;;;;;;8.20;5.83;;;21.00;70.00;;;;;;5036842;28;20542;-45
2021/07/18 00:14:16;;;;;;;5.80;5.30;;;21.00;70.30;;;;;;5035280;28;20492;-44
2021/07/18 00:16:43;;;;;;;6.97;5.40;;;21.00;70.20;;;;;;5041244;28;20512;-44
2021/07/18 00:19:10;;;;;;;12.03;8.60;;;21.00;70.20;;;;;;5042294;28;21226;-44
2021/07/18 00:21:37;;;;;;;12.33;9.97;;;20.90;70.40;;;;;;5039390;28;20816;-44
2021/07/18 00:24:05;;;;;;;9.67;7.67;;;20.90;70.40;;;;;;5040289;28;20496;-45
2021/07/18 00:26:32;;;;;;;11.33;8.50;;;20.90;70.40;;;;;;5035284;28;20463;-44
2021/07/18 00:28:59;;;;;;;12.83;9.97;;;20.90;70.60;;;;;;5036709;28;20455;-44
2021/07/18 00:31:26;;;;;;;13.83;9.50;;;20.90;71.00;;;;;;5034534;28;20450;-44
2021/07/18 00:33:53;;;;;;;14.33;8.00;;;20.90;70.80;;;;;;5035125;28;20966;-45
2021/07/18 00:36:19;;;;;;;13.23;7.33;;;20.90;70.90;;;;;;5036058;28;20542;-44
2021/07/18 00:38:46;;;;;;;8.90;5.67;;;20.80;71.00;;;;;;5036246;28;20467;-43
2021/07/18 00:41:13;;;;;;;8.50;5.17;;;20.80;71.00;;;;;;5037192;28;20533;-45
2021/07/18 00:43:40;;;;;;;14.07;7.00;;;20.80;70.50;;;;;;5038502;28;20490;-44
2021/07/18 00:46:07;;;;;;;5.40;4.37;;;20.70;70.60;;;;;;5037912;28;20554;-45
2021/07/18 00:48:34;;;;;;;7.30;4.87;;;20.70;71.00;;;;;;5038341;28;20570;-43
2021/07/18 00:51:01;;;;;;;3.73;2.73;;;20.70;71.60;;;;;;5032277;28;20939;-45
2021/07/18 00:53:30;;;;;;;3.60;2.30;;;20.70;71.60;;;;;;5040036;28;20661;-44
2021/07/18 00:55:58;;;;;;;4.87;2.47;;;20.60;71.70;;;;;;5032538;28;20459;-44
2021/07/18 00:58:30;;;;;;;2.53;2.10;;;20.60;71.70;;;;;;5033305;28;20543;-45
2021/07/18 01:00:58;;;;;;;6.20;2.47;;;20.50;72.00;;;;;;5033399;28;20629;-44
2021/07/18 01:03:31;;;;;;;2.20;2.00;;;20.50;72.10;;;;;;5034564;28;20454;-44
2021/07/18 01:05:58;;;;;;;6.53;2.53;;;20.40;72.10;;;;;;5038241;28;20542;-43
2021/07/18 01:08:26;;;;;;;4.20;2.20;;;20.40;71.80;;;;;;5032576;28;20522;-45
2021/07/18 01:10:53;;;;;;;3.47;2.00;;;20.40;71.70;;;;;;5038549;28;20502;-43
2021/07/18 01:13:20;;;;;;;3.80;1.83;;;20.40;72.00;;;;;;5039932;28;20461;-45
2021/07/18 01:15:47;;;;;;;2.00;1.80;;;20.40;72.10;;;;;;5040938;28;20450;-45
2021/07/18 01:18:14;;;;;;;2.90;1.97;;;20.30;72.20;;;;;;5036056;28;20463;-45
2021/07/18 01:20:42;;;;;;;2.00;1.67;;;20.30;72.30;;;;;;5036619;28;20455;-44
2021/07/18 01:23:09;;;;;;;1.93;1.70;;;20.30;72.50;;;;;;5035614;28;20541;-44
2021/07/18 01:25:37;;;;;;;2.43;1.60;;;20.30;72.20;;;;;;5039856;28;20501;-43
2021/07/18 01:28:12;;;;;;;2.10;1.90;;;20.20;72.60;;;;;;5041262;28;20909;-43
2021/07/18 01:30:40;;;;;;;2.53;1.63;;;20.20;72.80;;;;;;5034992;28;20531;-44
2021/07/18 01:33:07;;;;;;;2.13;1.90;;;20.20;72.80;;;;;;5020822;28;20461;-44
2021/07/18 01:35:34;;;;;;;1.93;1.73;;;20.20;73.00;;;;;;5035881;28;20455;-44
2021/07/18 01:38:05;;;;;;;3.47;1.80;;;20.10;73.10;;;;;;5039566;28;20462;-45
2021/07/18 01:40:32;;;;;;;3.10;2.20;;;20.10;73.00;;;;;;5035964;28;20554;-44
2021/07/18 01:42:59;;;;;;;2.27;1.57;;;20.10;73.00;;;;;;5042889;28;20459;-43
2021/07/18 01:45:26;;;;;;;2.90;1.80;;;20.00;73.10;;;;;;5038966;28;20498;-44
2021/07/18 01:47:53;;;;;;;3.23;1.80;;;20.00;73.10;;;;;;5035494;28;20487;-44
2021/07/18 01:50:20;;;;;;;1.70;1.60;;;20.00;73.30;;;;;;5035398;28;20875;-45
2021/07/18 01:52:47;;;;;;;5.37;1.77;;;20.00;73.60;;;;;;5032701;28;20532;-44
2021/07/18 01:55:18;;;;;;;6.30;2.13;;;20.00;73.60;;;;;;5031617;28;20487;-45
2021/07/18 01:57:45;;;;;;;3.00;1.77;;;19.90;73.30;;;;;;5034289;28;20467;-44
2021/07/18 02:00:14;;;;;;;2.30;1.77;;;19.90;73.20;;;;;;5036139;28;20459;-45
2021/07/18 02:02:50;;;;;;;5.27;2.27;;;19.90;73.10;;;;;;5031335;28;20639;-44
2021/07/18 02:05:20;;;;;;;3.63;2.27;;;19.90;73.40;;;;;;5036084;28;20458;-44
2021/07/18 02:07:48;;;;;;;3.00;1.87;;;19.90;73.50;;;;;;5031480;28;20574;-44
2021/07/18 02:10:17;;;;;;;3.80;2.30;;;19.80;73.80;;;;;;5041672;28;20536;-44
2021/07/18 02:12:45;;;;;;;2.47;1.60;;;19.80;74.00;;;;;;5038762;28;20900;-44
2021/07/18 02:15:15;;;;;;;1.50;1.40;;;19.80;74.00;;;;;;5034033;28;20832;-45
2021/07/18 02:17:41;;;;;;;2.93;1.70;;;19.80;74.10;;;;;;5031596;28;20470;-45
2021/07/18 02:20:11;;;;;;;2.00;1.90;;;19.80;74.10;;;;;;5029818;28;20900;-43
2021/07/18 02:22:41;;;;;;;3.10;1.80;;;19.80;73.90;;;;;;5031866;28;20476;-43
2021/07/18 02:25:09;;;;;;;3.60;1.53;;;19.70;73.90;;;;;;5038660;28;20478;-45
2021/07/18 02:27:36;;;;;;;2.80;1.90;;;19.70;74.00;;;;;;5037226;28;21069;-44
2021/07/18 02:30:15;;;;;;;3.70;2.10;;;19.70;74.30;;;;;;5032794;28;20778;-44
2021/07/18 02:32:42;;;;;;;3.23;2.93;;;19.70;74.40;;;;;;5032902;28;20458;-45
2021/07/18 02:35:11;;;;;;;2.43;1.70;;;19.70;74.50;;;;;;5033482;28;20459;-43
2021/07/18 02:37:39;;;;;;;6.37;2.63;;;19.70;74.60;;;;;;5035811;28;20498;-44
2021/07/18 02:40:07;;;;;;;5.50;2.30;;;19.70;75.00;;;;;;5035965;28;20467;-44
2021/07/18 02:42:34;;;;;;;3.97;2.03;;;19.70;74.80;;;;;;5036401;28;20542;-46
2021/07/18 02:45:02;;;;;;;3.13;2.43;;;19.70;74.70;;;;;;5034304;28;22861;-46
2021/07/18 02:47:28;;;;;;;2.90;2.40;;;19.70;74.60;;;;;;5032655;28;20560;-44
2021/07/18 02:49:55;;;;;;;2.80;1.73;;;19.70;74.70;;;;;;5035138;28;20542;-43
2021/07/18 02:52:22;;;;;;;3.13;1.90;;;19.60;74.90;;;;;;5027080;28;20554;-44
2021/07/18 02:54:50;;;;;;;2.50;2.30;;;19.60;74.80;;;;;;5033299;28;20531;-43
2021/07/18 02:57:17;;;;;;;3.40;2.33;;;19.60;74.80;;;;;;5031766;28;20536;-44
2021/07/18 02:59:44;;;;;;;2.13;1.90;;;19.60;74.90;;;;;;5029598;28;20590;-44
2021/07/18 03:02:11;;;;;;;3.17;2.40;;;19.60;74.90;;;;;;5038487;28;20478;-44
2021/07/18 03:04:38;;;;;;;2.20;2.00;;;19.60;74.90;;;;;;5031019;28;20459;-44
2021/07/18 03:07:05;;;;;;;2.30;1.90;;;19.60;74.90;;;;;;5033792;28;21023;-45
2021/07/18 03:09:32;;;;;;;6.80;1.93;;;19.50;75.00;;;;;;5031772;28;20499;-45
2021/07/18 03:11:59;;;;;;;2.20;2.00;;;19.50;75.20;;;;;;5035052;28;20483;-45
2021/07/18 03:14:26;;;;;;;4.47;2.47;;;19.40;75.40;;;;;;5031658;28;20458;-45
2021/07/18 03:16:53;;;;;;;3.00;2.00;;;19.40;75.40;;;;;;5034887;28;20550;-45
2021/07/18 03:19:20;;;;;;;2.23;2.03;;;19.40;75.60;;;;;;5031387;28;20457;-45
2021/07/18 03:21:48;;;;;;;2.80;1.77;;;19.40;75.80;;;;;;5030181;28;20542;-44
2021/07/18 03:24:15;;;;;;;3.33;2.00;;;19.40;75.60;;;;;;5031138;28;20499;-44
2021/07/18 03:26:42;;;;;;;2.30;1.90;;;19.30;75.80;;;;;;5035735;28;20541;-43
2021/07/18 03:29:09;;;;;;;2.23;1.63;;;19.30;75.80;;;;;;5038676;28;20487;-45
2021/07/18 03:31:36;;;;;;;2.00;1.80;;;19.20;76.00;;;;;;5031271;28;20537;-44
2021/07/18 03:34:03;;;;;;;4.33;2.43;;;19.30;76.50;;;;;;5039892;28;20459;-44
2021/07/18 03:36:30;;;;;;;3.67;1.57;;;19.30;76.30;;;;;;5039488;28;20488;-46
2021/07/18 03:38:56;;;;;;;4.07;2.53;;;19.20;76.30;;;;;;5039010;28;20504;-45
2021/07/18 03:41:23;;;;;;;5.73;2.27;;;19.20;76.30;;;;;;5044610;28;20459;-44
2021/07/18 03:43:50;;;;;;;2.10;1.80;;;19.10;76.50;;;;;;5040807;28;20509;-44
2021/07/18 03:46:17;;;;;;;2.17;1.90;;;19.10;76.70;;;;;;5034251;28;20550;-44
2021/07/18 03:48:44;;;;;;;4.23;2.13;;;19.10;76.90;;;;;;5037097;28;21064;-44
2021/07/18 03:51:10;;;;;;;2.93;1.90;;;19.00;77.00;;;;;;5035170;28;20542;-44
2021/07/18 03:53:37;;;;;;;3.87;2.47;;;19.00;77.10;;;;;;5035421;28;20546;-44
2021/07/18 03:56:04;;;;;;;6.80;3.07;;;19.00;77.20;;;;;;5037733;28;20990;-45
2021/07/18 03:58:31;;;;;;;4.37;2.57;;;19.00;77.30;;;;;;5035042;28;20466;-45
2021/07/18 04:00:58;;;;;;;3.97;2.03;;;19.00;77.40;;;;;;5037443;28;20467;-44
2021/07/18 04:03:25;;;;;;;3.43;2.30;;;18.90;77.50;;;;;;5040111;28;20484;-45
2021/07/18 04:05:52;;;;;;;2.93;2.37;;;18.90;77.70;;;;;;5033512;28;20478;-45
2021/07/18 04:08:18;;;;;;;3.07;2.33;;;19.00;77.60;;;;;;5035689;28;20581;-46
2021/07/18 04:10:45;;;;;;;4.23;2.50;;;19.00;77.60;;;;;;5035491;28;20452;-46
2021/07/18 04:13:12;;;;;;;4.90;2.10;;;19.00;77.60;;;;;;5035632;28;20466;-45
2021/07/18 04:15:39;;;;;;;2.80;2.03;;;19.00;77.90;;;;;;5034566;28;20474;-44
2021/07/18 04:18:09;;;;;;;2.57;2.37;;;19.00;77.80;;;;;;5036313;28;20564;-46
2021/07/18 04:20:40;;;;;;;2.80;2.07;;;19.00;77.80;;;;;;5035023;28;20513;-44
2021/07/18 04:23:08;;;;;;;7.40;2.60;;;19.00;77.80;;;;;;5035550;28;20550;-44
2021/07/18 04:25:35;;;;;;;2.77;2.13;;;19.00;77.80;;;;;;5038173;28;20528;-44
2021/07/18 04:28:02;;;;;;;4.83;1.93;;;19.00;77.80;;;;;;5037189;28;20484;-45
2021/07/18 04:30:29;;;;;;;2.20;1.57;;;19.00;77.70;;;;;;5032892;28;20808;-43
2021/07/18 04:32:56;;;;;;;5.53;2.07;;;19.00;77.70;;;;;;5037571;28;21025;-44
2021/07/18 04:35:23;;;;;;;3.23;2.17;;;19.00;77.70;;;;;;5039922;28;20541;-44
2021/07/18 04:37:49;;;;;;;4.50;2.17;;;19.00;77.80;;;;;;5036017;28;20537;-44
2021/07/18 04:40:16;;;;;;;3.30;2.07;;;19.00;77.70;;;;;;5037335;28;20530;-44
2021/07/18 04:42:43;;;;;;;3.00;2.10;;;19.10;77.60;;;;;;5037663;28;20451;-45
2021/07/18 04:45:10;;;;;;;3.67;1.80;;;19.10;77.70;;;;;;5038045;28;20485;-45
2021/07/18 04:47:45;;;;;;;3.10;2.10;;;19.10;77.80;;;;;;5037583;28;20459;-44
2021/07/18 04:50:13;;;;;;;2.20;2.00;;;19.10;77.70;;;;;;5037376;28;20546;-44
2021/07/18 04:52:40;;;;;;;3.50;2.30;;;19.10;77.50;;;;;;5037471;28;20798;-46
2021/07/18 04:55:08;;;;;;;2.50;1.73;;;19.10;77.80;;;;;;5044286;28;20482;-44
2021/07/18 04:57:35;;;;;;;4.77;2.00;;;19.20;77.80;;;;;;5035479;28;20836;-45
2021/07/18 05:00:05;;;;;;;3.03;2.33;;;19.20;77.50;;;;;;5040213;28;21067;-45
2021/07/18 05:02:32;;;;;;;5.87;2.80;;;19.20;77.40;;;;;;5039942;28;20553;-45
2021/07/18 05:04:59;;;;;;;4.03;2.20;;;19.20;77.30;;;;;;5041066;28;20509;-45
2021/07/18 05:07:26;;;;;;;2.20;2.00;;;19.30;77.40;;;;;;5038448;28;20524;-44
2021/07/18 05:09:53;;;;;;;3.33;2.50;;;19.30;77.40;;;;;;5043016;28;20495;-44
2021/07/18 05:12:19;;;;;;;2.43;1.83;;;19.20;77.60;;;;;;5038180;28;20546;-46
2021/07/18 05:14:46;;;;;;;3.03;2.37;;;19.30;77.60;;;;;;5037028;28;20738;-46
2021/07/18 05:17:13;;;;;;;4.27;2.23;;;19.30;77.60;;;;;;5042528;28;20498;-44
2021/07/18 05:19:40;;;;;;;2.33;1.83;;;19.30;77.30;;;;;;5035498;28;20465;-45
2021/07/18 05:22:08;;;;;;;2.63;1.83;;;19.40;77.00;;;;;;5035259;28;20555;-44
2021/07/18 05:24:35;;;;;;;3.27;2.20;;;19.40;76.90;;;;;;5034255;28;20528;-44
2021/07/18 05:27:02;;;;;;;2.90;2.60;;;19.50;77.10;;;;;;5038971;28;20503;-44
2021/07/18 05:29:29;;;;;;;2.57;2.00;;;19.50;77.00;;;;;;5040569;28;20581;-44
2021/07/18 05:31:56;;;;;;;5.90;2.03;;;19.50;76.70;;;;;;5036365;28;20451;-45
2021/07/18 05:34:24;;;;;;;2.90;1.90;;;19.60;76.70;;;;;;5038213;28;20462;-45
2021/07/18 05:36:51;;;;;;;2.57;1.83;;;19.60;76.70;;;;;;5036979;28;20482;-45
2021/07/18 05:39:18;;;;;;;2.63;2.03;;;19.60;76.60;;;;;;5035525;28;20963;-46
2021/07/18 05:41:44;;;;;;;3.50;1.97;;;19.70;76.60;;;;;;5041564;28;20487;-44
2021/07/18 05:44:11;;;;;;;3.90;2.20;;;19.70;76.20;;;;;;5034001;28;20516;-45
2021/07/18 05:46:38;;;;;;;1.80;1.70;;;19.70;75.90;;;;;;5032668;28;20513;-46
2021/07/18 05:49:05;;;;;;;2.00;1.80;;;19.80;75.90;;;;;;5036484;28;20482;-44
2021/07/18 05:51:32;;;;;;;3.70;2.10;;;19.80;74.90;;;;;;5038373;28;20560;-47
2021/07/18 05:53:58;;;;;;;2.50;2.30;;;19.90;74.90;;;;;;5038476;28;20614;-44
2021/07/18 05:56:25;;;;;;;2.73;1.83;;;19.90;74.70;;;;;;5042710;28;20935;-45
2021/07/18 05:58:52;;;;;;;2.90;1.93;;;20.00;74.50;;;;;;5035596;28;20542;-45
2021/07/18 06:01:19;;;;;;;2.20;1.73;;;20.00;74.60;;;;;;5032392;28;20547;-44
2021/07/18 06:03:46;;;;;;;3.13;2.00;;;20.00;74.50;;;;;;5032049;28;20450;-44
2021/07/18 06:06:13;;;;;;;2.83;2.20;;;20.10;74.00;;;;;;5031459;28;20537;-44
2021/07/18 06:08:39;;;;;;;6.03;2.20;;;20.10;73.80;;;;;;5033216;28;21079;-45
2021/07/18 06:11:06;;;;;;;2.63;2.10;;;20.10;73.80;;;;;;5037151;28;20451;-45
2021/07/18 06:13:33;;;;;;;3.30;1.53;;;20.20;73.30;;;;;;5033686;28;20531;-44
2021/07/18 06:16:00;;;;;;;3.40;2.07;;;20.20;73.50;;;;;;5036091;28;20455;-44
2021/07/18 06:18:27;;;;;;;2.50;1.90;;;20.30;73.50;;;;;;5029662;28;20520;-46
2021/07/18 06:20:54;;;;;;;3.90;1.73;;;20.30;73.60;;;;;;5032423;28;20545;-45
2021/07/18 06:23:21;;;;;;;2.10;1.70;;;20.40;73.50;;;;;;5032702;28;20563;-46
2021/07/18 06:25:59;;;;;;;2.43;1.70;;;20.40;73.10;;;;;;5036659;28;20477;-45
2021/07/18 06:28:26;;;;;;;1.93;1.73;;;20.50;72.50;;;;;;5031509;28;20524;-44
2021/07/18 06:30:54;;;;;;;2.93;1.93;;;20.60;71.80;;;;;;5039205;28;20603;-46
2021/07/18 06:33:21;;;;;;;2.40;1.87;;;20.60;71.30;;;;;;5033145;28;21054;-45
2021/07/18 06:35:48;;;;;;;1.93;1.60;;;20.70;71.60;;;;;;5036752;28;20457;-45
2021/07/18 06:38:15;;;;;;;3.57;1.83;;;20.70;72.10;;;;;;5030452;28;20465;-44
2021/07/18 06:40:43;;;;;;;2.30;1.37;;;20.80;71.60;;;;;;5037833;28;20561;-44
2021/07/18 06:43:10;;;;;;;2.77;2.30;;;20.90;70.50;;;;;;5039255;28;20544;-44
2021/07/18 06:45:37;;;;;;;3.30;1.60;;;21.00;70.50;;;;;;5033508;28;20465;-44
2021/07/18 06:48:04;;;;;;;2.03;1.30;;;21.00;69.20;;;;;;5034033;28;20910;-45
2021/07/18 06:50:31;;;;;;;2.67;1.33;;;21.10;68.90;;;;;;5040373;28;20566;-46
2021/07/18 06:52:58;;;;;;;1.50;1.40;;;21.20;68.60;;;;;;5035315;28;20467;-44
2021/07/18 06:55:24;;;;;;;2.93;1.90;;;21.30;67.40;;;;;;5039543;28;20534;-46
2021/07/18 06:57:52;;;;;;;3.00;1.20;;;21.40;66.20;;;;;;5039276;28;20471;-45
2021/07/18 07:00:20;;;;;;;2.40;1.30;;;21.60;66.00;;;;;;5031856;28;20541;-45
2021/07/18 07:02:48;;;;;;;2.70;1.60;;;21.70;66.00;;;;;;5034587;28;20965;-43
2021/07/18 07:05:16;;;;;;;3.23;1.60;;;21.80;65.80;;;;;;5030204;28;20458;-44
2021/07/18 07:07:48;;;;;;;3.23;1.50;;;21.90;64.50;;;;;;5039449;28;20459;-44
2021/07/18 07:10:17;;;;;;;7.83;2.43;;;22.00;64.80;;;;;;5037830;28;20574;-44
2021/07/18 07:12:46;;;;;;;4.63;1.40;;;22.10;65.50;;;;;;5037390;28;20495;-44
2021/07/18 07:15:13;;;;;;;2.17;1.50;;;22.20;65.50;;;;;;5036556;28;20541;-45
2021/07/18 07:17:45;;;;;;;2.40;1.43;;;22.30;64.50;;;;;;5042305;28;21061;-44
2021/07/18 07:20:13;;;;;;;4.57;1.40;;;22.40;63.70;;;;;;5035329;28;20493;-44
2021/07/18 07:22:40;;;;;;;2.63;1.60;;;22.50;63.80;;;;;;5040203;28;20922;-44
2021/07/18 07:25:13;;;;;;;1.63;1.20;;;22.60;63.60;;;;;;5039048;28;20473;-45
2021/07/18 07:27:41;;;;;;;4.53;1.80;;;22.80;62.90;;;;;;5037467;28;20494;-44
2021/07/18 07:30:09;;;;;;;1.30;1.20;;;22.90;63.10;;;;;;5039675;28;20953;-45
2021/07/18 07:32:37;;;;;;;2.33;1.63;;;23.10;63.60;;;;;;5035145;28;20509;-46
2021/07/18 07:35:05;;;;;;;2.97;1.47;;;23.30;62.90;;;;;;5041135;28;20477;-45
2021/07/18 07:37:32;;;;;;;2.90;1.20;;;23.40;61.80;;;;;;5035007;28;20457;-47
2021/07/18 07:39:59;;;;;;;4.07;1.60;;;23.60;61.40;;;;;;5042205;28;21060;-44
2021/07/18 07:42:26;;;;;;;3.40;1.47;;;23.70;61.70;;;;;;5036619;28;20450;-45
2021/07/18 07:44:53;;;;;;;2.00;1.37;;;23.80;61.40;;;;;;5040717;28;20447;-45
2021/07/18 07:47:22;;;;;;;1.73;1.30;;;24.00;61.00;;;;;;5040895;28;20818;-45
2021/07/18 07:49:49;;;;;;;3.47;1.27;;;24.10;59.30;;;;;;5037819;28;20530;-44
2021/07/18 07:52:15;;;;;;;3.10;1.37;;;24.30;59.80;;;;;;5041742;28;20852;-45
2021/07/18 07:54:43;;;;;;;2.10;1.10;;;24.30;59.10;;;;;;5036899;28;20485;-43
2021/07/18 07:57:10;;;;;;;6.10;1.70;;;24.40;58.70;;;;;;5040417;28;20498;-46
2021/07/18 07:59:37;;;;;;;1.50;1.20;;;24.50;58.20;;;;;;5042854;28;20465;-44
2021/07/18 08:02:04;;;;;;;1.87;1.77;;;24.50;58.10;;;;;;5041568;28;20871;-45
2021/07/18 08:04:32;;;;;;;1.50;1.10;;;24.60;58.70;;;;;;5036476;28;20512;-44
2021/07/18 08:06:59;;;;;;;4.20;1.90;;;24.70;59.00;;;;;;5045068;28;20454;-44
2021/07/18 08:09:26;;;;;;;1.63;1.50;;;24.70;59.10;;;;;;5036997;28;20914;-45
2021/07/18 08:11:54;;;;;;;5.00;1.83;;;24.70;59.30;;;;;;5041557;28;20462;-45
2021/07/18 08:14:21;;;;;;;2.50;1.70;;;24.80;59.00;;;;;;5038594;28;20455;-44
2021/07/18 08:16:47;;;;;;;1.57;1.10;;;24.90;59.70;;;;;;5032909;28;20975;-44
2021/07/18 08:19:14;;;;;;;2.10;1.30;;;25.00;57.90;;;;;;5041479;28;20457;-44
2021/07/18 08:21:41;;;;;;;3.87;2.10;;;25.00;57.80;;;;;;5035853;28;21001;-46
2021/07/18 08:24:12;;;;;;;2.33;1.37;;;25.20;57.80;;;;;;5047594;28;20450;-45
2021/07/18 08:26:40;;;;;;;2.60;1.30;;;25.20;58.10;;;;;;5045619;28;20449;-46
2021/07/18 08:29:07;;;;;;;2.00;1.57;;;25.40;58.20;;;;;;5034843;28;20503;-44
2021/07/18 08:31:34;;;;;;;9.40;1.83;;;25.50;57.70;;;;;;5039163;28;20558;-46
2021/07/18 08:34:01;;;;;;;6.77;1.30;;;25.60;57.30;;;;;;5041065;28;21452;-45
2021/07/18 08:36:28;;;;;;;1.57;1.47;;;25.80;56.60;;;;;;5042457;28;20488;-45
2021/07/18 08:38:55;;;;;;;4.00;2.00;;;25.90;56.50;;;;;;5039382;28;20798;-44
2021/07/18 08:41:22;;;;;;;2.80;1.30;;;26.10;56.50;;;;;;5035341;28;20477;-44
2021/07/18 08:43:50;;;;;;;1.70;1.30;;;26.20;56.60;;;;;;5038238;28;20512;-45
2021/07/18 08:46:20;;;;;;;9.03;1.33;;;26.40;55.00;;;;;;5037209;28;20542;-46
2021/07/18 08:48:48;;;;;;;3.07;1.70;;;26.50;55.00;;;;;;5036307;28;20520;-46
2021/07/18 08:51:16;;;;;;;2.30;1.80;;;26.60;55.10;;;;;;5036740;28;20451;-45
2021/07/18 08:53:43;;;;;;;1.87;1.30;;;26.70;54.60;;;;;;5039263;28;20477;-45
2021/07/18 08:56:11;;;;;;;1.50;1.20;;;26.90;55.20;;;;;;5036588;28;20826;-45
2021/07/18 08:58:40;;;;;;;1.77;1.40;;;27.00;54.50;;;;;;5040056;28;20561;-44
2021/07/18 09:01:07;;;;;;;2.73;1.20;;;27.20;53.80;;;;;;5038776;28;20489;-45
2021/07/18 09:03:35;;;;;;;1.47;1.27;;;27.30;54.10;;;;;;5038810;28;20966;-44
2021/07/18 09:06:10;;;;;;;2.70;1.40;;;27.40;54.00;;;;;;5035857;28;20228;-45
2021/07/18 09:08:45;;;;;;;1.80;1.40;;;27.60;53.00;;;;;;5038210;28;20834;-45
2021/07/18 09:11:25;;;;;;;4.20;1.97;;;27.70;52.70;;;;;;5037461;28;20231;-44
2021/07/18 09:14:12;;;;;;;5.70;1.47;;;28.00;53.30;;;;;;5035144;28;20227;-43
2021/07/18 09:16:42;;;;;;;4.20;1.20;;;28.10;52.40;;;;;;5040044;28;20298;-44
2021/07/18 09:19:32;;;;;;;3.23;1.30;;;28.10;50.90;;;;;;5034895;28;20532;-44
2021/07/18 09:22:12;;;;;;;2.20;1.30;;;28.20;51.20;;;;;;5040924;28;20250;-44
2021/07/18 09:24:45;;;;;;;2.15;1.15;;;28.40;50.70;;;;;;5034325;28;20239;-44
2021/07/18 09:27:17;;;;;;;1.70;1.43;;;28.60;50.80;;;;;;5036874;28;20300;-43
2021/07/18 09:29:52;;;;;;;2.87;1.27;;;28.90;50.50;;;;;;5035756;28;20242;-43
2021/07/18 09:32:22;;;;;;;8.60;1.40;;;29.20;49.70;;;;;;5035545;28;20204;-43
2021/07/18 09:34:55;;;;;;;3.85;1.30;;;29.50;49.30;;;;;;5034964;28;20290;-44
2021/07/18 09:37:25;;;;;;;4.70;1.40;;;29.70;47.90;;;;;;5032288;28;20207;-43
2021/07/18 09:39:55;;;;;;;2.08;1.40;;;29.90;47.90;;;;;;5034380;28;20610;-44
2021/07/18 09:42:43;;;;;;;2.70;1.15;;;30.20;47.10;;;;;;5035971;28;20207;-44
2021/07/18 09:45:25;;;;;;;3.33;1.13;;;30.50;46.60;;;;;;5037278;28;20229;-43
2021/07/18 09:48:03;;;;;;;3.17;1.65;;;30.90;46.60;;;;;;5035026;28;20208;-43
2021/07/18 09:50:34;;;;;;;3.70;1.27;;;31.30;45.70;;;;;;5036777;28;20281;-43
2021/07/18 09:53:14;;;;;;;2.67;1.25;;;31.60;45.40;;;;;;5039348;28;20200;-44
2021/07/18 09:56:06;;;;;;;3.65;1.40;;;31.90;45.20;;;;;;5034288;28;20223;-44
2021/07/18 09:58:35;;;;;;;1.60;1.15;;;32.30;44.80;;;;;;5033466;28;20299;-44
2021/07/18 10:01:06;;;;;;;1.70;1.58;;;32.70;43.70;;;;;;5038497;28;20694;-46
2021/07/18 10:03:34;;;;;;;3.20;1.58;;;32.90;43.30;;;;;;5038124;28;20207;-44
2021/07/18 10:06:06;;;;;;;3.90;1.40;;;33.00;43.60;;;;;;5042081;28;20550;-46
2021/07/18 10:08:35;;;;;;;2.35;1.52;;;33.20;42.40;;;;;;5035794;28;20673;-45
2021/07/18 10:11:04;;;;;;;1.20;1.02;;;33.50;42.10;;;;;;5034333;28;20228;-45
2021/07/18 10:13:31;;;;;;;3.47;1.50;;;33.70;42.20;;;;;;5032657;28;20207;-45
2021/07/18 10:16:00;;;;;;;1.70;1.30;;;34.00;41.30;;;;;;5035870;28;20302;-44
2021/07/18 10:18:29;;;;;;;2.55;1.20;;;34.10;41.40;;;;;;5031569;28;20201;-43
2021/07/18 10:20:58;;;;;;;1.30;1.08;;;34.00;41.20;;;;;;5039181;28;20291;-43
2021/07/18 10:23:26;;;;;;;2.80;1.48;;;34.20;41.50;;;;;;5035423;28;20212;-43
2021/07/18 10:26:25;;;;;;;2.13;1.40;;;34.50;41.10;;;;;;5040518;28;20211;-43
2021/07/18 10:28:53;;;;;;;2.97;1.17;;;34.60;41.20;;;;;;5032625;28;20208;-45
2021/07/18 10:31:33;;;;;;;2.92;1.48;;;34.80;40.30;;;;;;5038493;28;20612;-45
2021/07/18 10:34:03;;;;;;;1.42;1.10;;;34.90;40.00;;;;;;5035968;28;20203;-45
2021/07/18 10:36:32;;;;;;;1.55;1.38;;;35.10;40.30;;;;;;5038732;28;20681;-46
2021/07/18 10:38:59;;;;;;;2.33;1.70;;;35.30;39.30;;;;;;5034323;28;20235;-46
2021/07/18 10:41:52;;;;;;;1.75;1.23;;;35.30;39.80;;;;;;5036381;28;20235;-43
2021/07/18 10:44:19;;;;;;;2.22;1.13;;;35.20;39.50;;;;;;5041032;28;20227;-45
2021/07/18 10:46:55;;;;;;;2.67;1.40;;;35.00;39.60;;;;;;5038335;28;20227;-46
2021/07/18 10:49:56;;;;;;;2.65;1.33;;;34.80;39.70;;;;;;5041102;28;20298;-45
2021/07/18 10:52:34;;;;;;;2.08;1.33;;;34.10;40.60;;;;;;5036172;28;20230;-44
2021/07/18 10:55:19;;;;;;;3.03;1.48;;;33.60;42.00;;;;;;5041775;28;20207;-44
2021/07/18 10:57:51;;;;;;;1.90;1.30;;;33.20;42.70;;;;;;5039115;28;20280;-44
2021/07/18 11:00:25;;;;;;;2.33;1.38;;;32.60;42.50;;;;;;5040765;28;20630;-44
2021/07/18 11:03:08;;;;;;;3.97;1.45;;;31.80;43.80;;;;;;5040631;28;20709;-44
2021/07/18 11:05:54;;;;;;;2.70;1.10;;;31.40;44.90;;;;;;5040382;28;20243;-44
2021/07/18 11:08:23;;;;;;;2.95;1.90;;;30.90;45.30;;;;;;5044328;28;20310;-45
2021/07/18 11:10:54;;;;;;;2.60;1.42;;;30.50;46.00;;;;;;5041826;28;20318;-44
2021/07/18 11:13:22;;;;;;;2.47;1.70;;;30.10;46.70;;;;;;5037980;28;20288;-44
2021/07/18 11:15:50;;;;;;;2.92;1.50;;;29.80;47.60;;;;;;5041077;28;20696;-43
2021/07/18 11:18:31;;;;;;;3.03;1.40;;;29.60;48.30;;;;;;5037174;28;20287;-44
2021/07/18 11:21:29;;;;;;;2.60;1.50;;;29.30;48.30;;;;;;5037642;28;20211;-44
2021/07/18 11:23:56;;;;;;;2.67;1.38;;;29.10;48.20;;;;;;5042529;28;20291;-44
2021/07/18 11:26:23;;;;;;;2.07;1.30;;;28.90;48.40;;;;;;5039684;28;20215;-43
2021/07/18 11:29:01;;;;;;;3.90;1.80;;;28.80;48.70;;;;;;5037325;28;20204;-44
2021/07/18 11:31:39;;;;;;;2.10;1.23;;;28.70;49.00;;;;;;5034801;28;20254;-45
2021/07/18 11:34:09;;;;;;;1.50;1.23;;;28.70;49.00;;;;;;5041428;28;20214;-44
2021/07/18 11:36:35;;;;;;;4.63;1.35;;;28.60;49.70;;;;;;5039585;28;20228;-45
2021/07/18 11:39:12;;;;;;;1.47;1.27;;;28.60;49.70;;;;;;5038418;28;20231;-45
2021/07/18 11:41:40;;;;;;;4.20;1.57;;;28.50;49.30;;;;;;5043329;28;20246;-45
2021/07/18 11:44:07;;;;;;;1.33;1.07;;;28.50;50.20;;;;;;5036482;28;20574;-45
2021/07/18 11:46:40;;;;;;;2.73;2.00;;;28.60;50.60;;;;;;5037637;28;20203;-45
2021/07/18 11:49:09;;;;;;;1.60;1.40;;;28.70;48.90;;;;;;5036701;28;20211;-45
2021/07/18 11:51:38;;;;;;;2.55;1.40;;;28.80;48.60;;;;;;5039586;28;20318;-44
2021/07/18 11:54:06;;;;;;;1.85;1.40;;;28.90;48.50;;;;;;5043566;28;20242;-45
2021/07/18 11:56:38;;;;;;;1.83;1.60;;;29.00;49.50;;;;;;5035568;28;20709;-45
2021/07/18 11:59:11;;;;;;;3.58;1.92;;;29.00;49.30;;;;;;5043174;28;20655;-45
2021/07/18 12:01:40;;;;;;;1.42;1.33;;;29.00;49.60;;;;;;5038298;28;20240;-43
2021/07/18 12:04:08;;;;;;;1.65;1.48;;;28.90;48.30;;;;;;5040150;28;20302;-44
2021/07/18 12:06:36;;;;;;;2.00;1.60;;;29.00;49.80;;;;;;5039290;28;20286;-44
2021/07/18 12:09:17;;;;;;;4.78;1.70;;;29.00;48.70;;;;;;5041080;28;20239;-45
2021/07/18 12:11:48;;;;;;;2.97;1.73;;;29.00;48.50;;;;;;5035615;28;20228;-43
2021/07/18 12:14:17;;;;;;;1.98;1.58;;;28.90;48.10;;;;;;5044230;28;20235;-45
2021/07/18 12:16:45;;;;;;;2.25;1.20;;;28.90;47.90;;;;;;5036334;28;20693;-44
2021/07/18 12:19:14;;;;;;;4.17;1.87;;;28.80;48.10;;;;;;5043703;28;20431;-46
2021/07/18 12:21:44;;;;;;;2.00;1.73;;;28.80;49.50;;;;;;5036490;28;20204;-44
2021/07/18 12:24:17;;;;;;;2.30;1.40;;;28.70;48.40;;;;;;5039833;28;20252;-43
2021/07/18 12:26:58;;;;;;;3.15;1.67;;;28.60;48.60;;;;;;5035826;28;20213;-45
2021/07/18 12:29:27;;;;;;;2.80;2.00;;;28.60;49.80;;;;;;5037057;28;20243;-44
2021/07/18 12:31:55;;;;;;;2.83;1.80;;;28.60;50.50;;;;;;5037760;28;20290;-44
2021/07/18 12:34:28;;;;;;;2.93;1.60;;;28.60;49.90;;;;;;5037310;28;20231;-44
2021/07/18 12:37:00;;;;;;;3.77;1.80;;;28.60;49.00;;;;;;5043049;28;20196;-44
2021/07/18 12:39:33;;;;;;;2.20;1.50;;;28.60;50.50;;;;;;5037603;28;20212;-42
2021/07/18 12:42:04;;;;;;;1.80;1.70;;;28.60;51.10;;;;;;5035640;28;20207;-43
2021/07/18 12:44:34;;;;;;;3.53;1.90;;;28.60;50.90;;;;;;5042006;28;20207;-45
2021/07/18 12:47:27;;;;;;;1.97;1.63;;;28.70;49.00;;;;;;5040679;28;20211;-45
2021/07/18 12:50:10;;;;;;;2.53;1.80;;;28.60;49.40;;;;;;5035909;28;20298;-45
2021/07/18 12:53:07;;;;;;;3.03;2.20;;;28.70;49.90;;;;;;5040415;28;20610;-46
2021/07/18 12:55:57;;;;;;;2.60;1.83;;;28.70;49.10;;;;;;5041767;28;20211;-45
2021/07/18 12:58:34;;;;;;;2.13;1.87;;;28.80;48.30;;;;;;5036699;28;20262;-44